sensor_id;sensor_type;location;lat;lon;timestamp;P1;durP1;ratioP1;P2;durP2;ratioP2
80565;SDS011;69915;54.862;10.730;2024-02-21T00:01:21;26.13;;;6.72;;
80565;SDS011;69915;54.862;10.730;2024-02-21T00:03:47;19.60;;;5.40;;
80565;SDS011;69915;54.862;10.730;2024-02-21T00:06:12;13.93;;;5.90;;
80565;SDS011;69915;54.862;10.730;2024-02-21T00:08:38;17.55;;;6.13;;
80565;SDS011;69915;54.862;10.730;2024-02-21T00:11:03;16.42;;;6.78;;
80565;SDS011;69915;54.862;10.730;2024-02-21T00:13:29;15.25;;;5.53;;
80565;SDS011;69915;54.862;10.730;2024-02-21T00:15:55;23.40;;;5.60;;
80565;SDS011;69915;54.862;10.730;2024-02-21T00:18:20;19.50;;;5.53;;
80565;SDS011;69915;54.862;10.730;2024-02-21T00:20:46;18.15;;;5.60;;
80565;SDS011;69915;54.862;10.730;2024-02-21T00:23:11;17.13;;;5.15;;
80565;SDS011;69915;54.862;10.730;2024-02-21T00:25:37;12.05;;;4.20;;
80565;SDS011;69915;54.862;10.730;2024-02-21T00:28:03;12.00;;;4.15;;
80565;SDS011;69915;54.862;10.730;2024-02-21T00:30:28;14.57;;;5.28;;
80565;SDS011;69915;54.862;10.730;2024-02-21T00:32:54;22.13;;;5.18;;
80565;SDS011;69915;54.862;10.730;2024-02-21T00:35:20;15.68;;;4.97;;
80565;SDS011;69915;54.862;10.730;2024-02-21T00:37:45;19.13;;;4.25;;
80565;SDS011;69915;54.862;10.730;2024-02-21T00:40:11;25.95;;;5.32;;
80565;SDS011;69915;54.862;10.730;2024-02-21T00:42:36;18.73;;;6.07;;
80565;SDS011;69915;54.862;10.730;2024-02-21T00:45:02;16.88;;;5.10;;
80565;SDS011;69915;54.862;10.730;2024-02-21T00:47:28;21.08;;;4.78;;
80565;SDS011;69915;54.862;10.730;2024-02-21T00:49:54;15.70;;;5.25;;
80565;SDS011;69915;54.862;10.730;2024-02-21T00:52:20;13.38;;;4.35;;
80565;SDS011;69915;54.862;10.730;2024-02-21T00:54:45;23.63;;;5.85;;
80565;SDS011;69915;54.862;10.730;2024-02-21T00:57:11;15.18;;;4.72;;
80565;SDS011;69915;54.862;10.730;2024-02-21T00:59:37;15.80;;;4.40;;
80565;SDS011;69915;54.862;10.730;2024-02-21T01:02:02;19.85;;;4.43;;
80565;SDS011;69915;54.862;10.730;2024-02-21T01:04:28;14.02;;;4.40;;
80565;SDS011;69915;54.862;10.730;2024-02-21T01:06:53;15.52;;;4.40;;
80565;SDS011;69915;54.862;10.730;2024-02-21T01:09:19;15.10;;;4.85;;
80565;SDS011;69915;54.862;10.730;2024-02-21T01:11:44;20.88;;;5.10;;
80565;SDS011;69915;54.862;10.730;2024-02-21T01:14:10;19.58;;;5.03;;
80565;SDS011;69915;54.862;10.730;2024-02-21T01:16:36;20.23;;;5.35;;
80565;SDS011;69915;54.862;10.730;2024-02-21T01:19:01;9.80;;;4.43;;
80565;SDS011;69915;54.862;10.730;2024-02-21T01:21:27;10.07;;;3.88;;
80565;SDS011;69915;54.862;10.730;2024-02-21T01:23:53;20.42;;;4.88;;
80565;SDS011;69915;54.862;10.730;2024-02-21T01:26:18;13.85;;;4.45;;
80565;SDS011;69915;54.862;10.730;2024-02-21T01:28:44;12.43;;;4.75;;
80565;SDS011;69915;54.862;10.730;2024-02-21T01:31:09;17.50;;;4.97;;
80565;SDS011;69915;54.862;10.730;2024-02-21T01:33:35;14.65;;;4.68;;
80565;SDS011;69915;54.862;10.730;2024-02-21T01:36:01;15.30;;;5.32;;
80565;SDS011;69915;54.862;10.730;2024-02-21T01:38:27;8.35;;;4.43;;
80565;SDS011;69915;54.862;10.730;2024-02-21T01:40:53;15.65;;;4.72;;
80565;SDS011;69915;54.862;10.730;2024-02-21T01:43:19;16.98;;;4.55;;
80565;SDS011;69915;54.862;10.730;2024-02-21T01:45:49;22.95;;;5.82;;
80565;SDS011;69915;54.862;10.730;2024-02-21T01:48:19;13.88;;;4.72;;
80565;SDS011;69915;54.862;10.730;2024-02-21T01:50:45;28.67;;;5.53;;
80565;SDS011;69915;54.862;10.730;2024-02-21T01:53:12;15.93;;;5.93;;
80565;SDS011;69915;54.862;10.730;2024-02-21T01:55:46;16.85;;;4.95;;
80565;SDS011;69915;54.862;10.730;2024-02-21T01:58:13;9.93;;;3.20;;
80565;SDS011;69915;54.862;10.730;2024-02-21T02:00:43;16.25;;;4.95;;
80565;SDS011;69915;54.862;10.730;2024-02-21T02:03:25;13.98;;;4.15;;
80565;SDS011;69915;54.862;10.730;2024-02-21T02:05:53;10.82;;;4.32;;
80565;SDS011;69915;54.862;10.730;2024-02-21T02:08:19;14.43;;;4.10;;
80565;SDS011;69915;54.862;10.730;2024-02-21T02:10:47;16.17;;;4.20;;
80565;SDS011;69915;54.862;10.730;2024-02-21T02:13:13;12.93;;;5.00;;
80565;SDS011;69915;54.862;10.730;2024-02-21T02:15:42;13.80;;;4.35;;
80565;SDS011;69915;54.862;10.730;2024-02-21T02:18:15;19.15;;;5.20;;
80565;SDS011;69915;54.862;10.730;2024-02-21T02:20:41;9.88;;;3.63;;
80565;SDS011;69915;54.862;10.730;2024-02-21T02:23:08;11.10;;;4.38;;
80565;SDS011;69915;54.862;10.730;2024-02-21T02:25:36;13.07;;;4.32;;
80565;SDS011;69915;54.862;10.730;2024-02-21T02:28:03;14.02;;;5.15;;
80565;SDS011;69915;54.862;10.730;2024-02-21T02:30:39;10.43;;;4.30;;
80565;SDS011;69915;54.862;10.730;2024-02-21T02:33:05;13.45;;;4.88;;
80565;SDS011;69915;54.862;10.730;2024-02-21T02:35:31;17.23;;;4.35;;
80565;SDS011;69915;54.862;10.730;2024-02-21T02:37:57;10.30;;;3.35;;
80565;SDS011;69915;54.862;10.730;2024-02-21T02:40:23;9.18;;;3.38;;
80565;SDS011;69915;54.862;10.730;2024-02-21T02:42:49;18.52;;;4.53;;
80565;SDS011;69915;54.862;10.730;2024-02-21T02:45:16;12.95;;;4.85;;
80565;SDS011;69915;54.862;10.730;2024-02-21T02:47:43;11.88;;;3.83;;
80565;SDS011;69915;54.862;10.730;2024-02-21T02:50:10;6.38;;;2.60;;
80565;SDS011;69915;54.862;10.730;2024-02-21T02:52:36;10.13;;;3.67;;
80565;SDS011;69915;54.862;10.730;2024-02-21T02:55:02;18.48;;;3.83;;
80565;SDS011;69915;54.862;10.730;2024-02-21T02:57:28;8.93;;;2.83;;
80565;SDS011;69915;54.862;10.730;2024-02-21T02:59:54;14.82;;;3.70;;
80565;SDS011;69915;54.862;10.730;2024-02-21T03:02:19;8.38;;;2.78;;
80565;SDS011;69915;54.862;10.730;2024-02-21T03:04:44;11.48;;;3.38;;
80565;SDS011;69915;54.862;10.730;2024-02-21T03:07:11;8.25;;;3.75;;
80565;SDS011;69915;54.862;10.730;2024-02-21T03:09:37;13.40;;;3.85;;
80565;SDS011;69915;54.862;10.730;2024-02-21T03:12:03;6.65;;;3.15;;
80565;SDS011;69915;54.862;10.730;2024-02-21T03:14:30;5.43;;;2.30;;
80565;SDS011;69915;54.862;10.730;2024-02-21T03:16:56;6.20;;;1.90;;
80565;SDS011;69915;54.862;10.730;2024-02-21T03:19:22;9.00;;;2.63;;
80565;SDS011;69915;54.862;10.730;2024-02-21T03:21:47;5.40;;;2.08;;
80565;SDS011;69915;54.862;10.730;2024-02-21T03:24:14;4.28;;;2.08;;
80565;SDS011;69915;54.862;10.730;2024-02-21T03:26:40;4.53;;;2.20;;
80565;SDS011;69915;54.862;10.730;2024-02-21T03:29:06;6.22;;;2.50;;
80565;SDS011;69915;54.862;10.730;2024-02-21T03:31:33;3.20;;;1.30;;
80565;SDS011;69915;54.862;10.730;2024-02-21T03:33:58;6.28;;;1.92;;
80565;SDS011;69915;54.862;10.730;2024-02-21T03:36:24;7.75;;;1.60;;
80565;SDS011;69915;54.862;10.730;2024-02-21T03:38:49;9.63;;;2.13;;
80565;SDS011;69915;54.862;10.730;2024-02-21T03:41:14;3.83;;;1.58;;
80565;SDS011;69915;54.862;10.730;2024-02-21T03:43:40;4.63;;;1.27;;
80565;SDS011;69915;54.862;10.730;2024-02-21T03:46:05;3.92;;;1.27;;
80565;SDS011;69915;54.862;10.730;2024-02-21T03:48:32;3.17;;;1.10;;
80565;SDS011;69915;54.862;10.730;2024-02-21T03:50:57;7.18;;;1.60;;
80565;SDS011;69915;54.862;10.730;2024-02-21T03:53:23;5.32;;;1.10;;
80565;SDS011;69915;54.862;10.730;2024-02-21T03:55:49;8.82;;;2.20;;
80565;SDS011;69915;54.862;10.730;2024-02-21T03:58:14;4.90;;;1.17;;
80565;SDS011;69915;54.862;10.730;2024-02-21T04:00:40;3.38;;;1.17;;
80565;SDS011;69915;54.862;10.730;2024-02-21T04:03:06;4.38;;;0.98;;
80565;SDS011;69915;54.862;10.730;2024-02-21T04:05:32;5.78;;;1.75;;
80565;SDS011;69915;54.862;10.730;2024-02-21T04:07:58;3.55;;;0.50;;
80565;SDS011;69915;54.862;10.730;2024-02-21T04:10:24;1.65;;;0.80;;
80565;SDS011;69915;54.862;10.730;2024-02-21T04:12:49;2.03;;;0.75;;
80565;SDS011;69915;54.862;10.730;2024-02-21T04:15:16;12.30;;;1.30;;
80565;SDS011;69915;54.862;10.730;2024-02-21T04:17:41;4.43;;;0.95;;
80565;SDS011;69915;54.862;10.730;2024-02-21T04:20:13;7.47;;;1.63;;
80565;SDS011;69915;54.862;10.730;2024-02-21T04:22:45;3.17;;;1.38;;
80565;SDS011;69915;54.862;10.730;2024-02-21T04:25:11;10.05;;;1.20;;
80565;SDS011;69915;54.862;10.730;2024-02-21T04:27:38;3.85;;;0.90;;
80565;SDS011;69915;54.862;10.730;2024-02-21T04:30:04;4.40;;;1.05;;
80565;SDS011;69915;54.862;10.730;2024-02-21T04:32:31;5.78;;;1.33;;
80565;SDS011;69915;54.862;10.730;2024-02-21T04:34:57;8.63;;;1.80;;
80565;SDS011;69915;54.862;10.730;2024-02-21T04:37:22;8.80;;;1.48;;
80565;SDS011;69915;54.862;10.730;2024-02-21T04:39:48;9.57;;;2.17;;
80565;SDS011;69915;54.862;10.730;2024-02-21T04:42:14;8.48;;;1.75;;
80565;SDS011;69915;54.862;10.730;2024-02-21T04:44:40;8.30;;;1.48;;
80565;SDS011;69915;54.862;10.730;2024-02-21T04:47:06;6.90;;;1.83;;
80565;SDS011;69915;54.862;10.730;2024-02-21T04:49:32;14.52;;;1.85;;
80565;SDS011;69915;54.862;10.730;2024-02-21T04:51:57;12.27;;;2.03;;
80565;SDS011;69915;54.862;10.730;2024-02-21T04:54:23;8.13;;;1.95;;
80565;SDS011;69915;54.862;10.730;2024-02-21T04:56:48;6.40;;;1.92;;
80565;SDS011;69915;54.862;10.730;2024-02-21T04:59:14;10.70;;;2.28;;
80565;SDS011;69915;54.862;10.730;2024-02-21T05:01:39;8.70;;;1.63;;
80565;SDS011;69915;54.862;10.730;2024-02-21T05:04:05;6.97;;;2.95;;
80565;SDS011;69915;54.862;10.730;2024-02-21T05:06:31;10.98;;;1.70;;
80565;SDS011;69915;54.862;10.730;2024-02-21T05:08:56;17.10;;;2.17;;
80565;SDS011;69915;54.862;10.730;2024-02-21T05:11:23;11.00;;;1.95;;
80565;SDS011;69915;54.862;10.730;2024-02-21T05:13:48;12.68;;;2.00;;
80565;SDS011;69915;54.862;10.730;2024-02-21T05:16:14;5.05;;;1.48;;
80565;SDS011;69915;54.862;10.730;2024-02-21T05:18:40;11.93;;;2.00;;
80565;SDS011;69915;54.862;10.730;2024-02-21T05:21:07;8.95;;;1.55;;
80565;SDS011;69915;54.862;10.730;2024-02-21T05:23:33;12.45;;;1.27;;
80565;SDS011;69915;54.862;10.730;2024-02-21T05:25:58;16.73;;;2.72;;
80565;SDS011;69915;54.862;10.730;2024-02-21T05:28:24;17.17;;;1.50;;
80565;SDS011;69915;54.862;10.730;2024-02-21T05:30:49;8.65;;;1.42;;
80565;SDS011;69915;54.862;10.730;2024-02-21T05:33:15;8.80;;;2.08;;
80565;SDS011;69915;54.862;10.730;2024-02-21T05:35:46;13.80;;;3.70;;
80565;SDS011;69915;54.862;10.730;2024-02-21T05:38:13;8.10;;;1.40;;
80565;SDS011;69915;54.862;10.730;2024-02-21T05:40:39;10.82;;;1.70;;
80565;SDS011;69915;54.862;10.730;2024-02-21T05:43:06;9.68;;;1.73;;
80565;SDS011;69915;54.862;10.730;2024-02-21T05:45:32;7.72;;;1.50;;
80565;SDS011;69915;54.862;10.730;2024-02-21T05:47:58;2.40;;;0.80;;
80565;SDS011;69915;54.862;10.730;2024-02-21T05:50:23;4.68;;;1.10;;
80565;SDS011;69915;54.862;10.730;2024-02-21T05:52:55;5.40;;;1.67;;
80565;SDS011;69915;54.862;10.730;2024-02-21T05:55:21;15.30;;;2.28;;
80565;SDS011;69915;54.862;10.730;2024-02-21T05:57:47;7.68;;;1.42;;
80565;SDS011;69915;54.862;10.730;2024-02-21T06:00:13;5.97;;;1.13;;
80565;SDS011;69915;54.862;10.730;2024-02-21T06:02:40;14.93;;;1.38;;
80565;SDS011;69915;54.862;10.730;2024-02-21T06:05:06;12.90;;;2.25;;
80565;SDS011;69915;54.862;10.730;2024-02-21T06:07:32;6.30;;;1.30;;
80565;SDS011;69915;54.862;10.730;2024-02-21T06:09:59;18.17;;;2.13;;
80565;SDS011;69915;54.862;10.730;2024-02-21T06:12:25;12.77;;;1.35;;
80565;SDS011;69915;54.862;10.730;2024-02-21T06:14:50;11.15;;;1.65;;
80565;SDS011;69915;54.862;10.730;2024-02-21T06:17:17;9.30;;;1.75;;
80565;SDS011;69915;54.862;10.730;2024-02-21T06:19:42;7.57;;;2.13;;
80565;SDS011;69915;54.862;10.730;2024-02-21T06:22:09;7.78;;;1.77;;
80565;SDS011;69915;54.862;10.730;2024-02-21T06:24:35;7.78;;;1.50;;
80565;SDS011;69915;54.862;10.730;2024-02-21T06:27:01;8.10;;;0.80;;
80565;SDS011;69915;54.862;10.730;2024-02-21T06:29:27;9.02;;;1.83;;
80565;SDS011;69915;54.862;10.730;2024-02-21T06:31:53;2.55;;;1.25;;
80565;SDS011;69915;54.862;10.730;2024-02-21T06:34:18;19.48;;;1.08;;
80565;SDS011;69915;54.862;10.730;2024-02-21T06:36:44;5.93;;;0.80;;
80565;SDS011;69915;54.862;10.730;2024-02-21T06:39:10;8.13;;;2.28;;
80565;SDS011;69915;54.862;10.730;2024-02-21T06:41:36;12.80;;;2.05;;
80565;SDS011;69915;54.862;10.730;2024-02-21T06:44:02;13.45;;;1.70;;
80565;SDS011;69915;54.862;10.730;2024-02-21T06:46:29;10.07;;;1.00;;
80565;SDS011;69915;54.862;10.730;2024-02-21T06:48:55;9.27;;;1.13;;
80565;SDS011;69915;54.862;10.730;2024-02-21T06:51:23;11.52;;;1.45;;
80565;SDS011;69915;54.862;10.730;2024-02-21T06:53:52;5.18;;;0.98;;
80565;SDS011;69915;54.862;10.730;2024-02-21T06:56:18;10.70;;;1.23;;
80565;SDS011;69915;54.862;10.730;2024-02-21T06:58:44;6.95;;;0.80;;
80565;SDS011;69915;54.862;10.730;2024-02-21T07:01:09;6.28;;;1.55;;
80565;SDS011;69915;54.862;10.730;2024-02-21T07:03:35;5.30;;;1.60;;
80565;SDS011;69915;54.862;10.730;2024-02-21T07:06:01;4.95;;;1.92;;
80565;SDS011;69915;54.862;10.730;2024-02-21T07:08:27;3.65;;;0.68;;
80565;SDS011;69915;54.862;10.730;2024-02-21T07:10:53;6.60;;;1.48;;
80565;SDS011;69915;54.862;10.730;2024-02-21T07:13:18;5.65;;;1.90;;
80565;SDS011;69915;54.862;10.730;2024-02-21T07:15:44;13.23;;;1.55;;
80565;SDS011;69915;54.862;10.730;2024-02-21T07:18:09;10.20;;;2.45;;
80565;SDS011;69915;54.862;10.730;2024-02-21T07:20:35;8.23;;;1.70;;
80565;SDS011;69915;54.862;10.730;2024-02-21T07:23:02;5.63;;;1.45;;
80565;SDS011;69915;54.862;10.730;2024-02-21T07:25:28;5.22;;;1.70;;
80565;SDS011;69915;54.862;10.730;2024-02-21T07:27:54;6.60;;;1.60;;
80565;SDS011;69915;54.862;10.730;2024-02-21T07:30:19;2.55;;;1.08;;
80565;SDS011;69915;54.862;10.730;2024-02-21T07:32:45;11.65;;;1.92;;
80565;SDS011;69915;54.862;10.730;2024-02-21T07:35:10;11.88;;;1.50;;
80565;SDS011;69915;54.862;10.730;2024-02-21T07:37:37;12.65;;;1.92;;
80565;SDS011;69915;54.862;10.730;2024-02-21T07:40:04;7.13;;;1.77;;
80565;SDS011;69915;54.862;10.730;2024-02-21T07:42:31;6.95;;;1.73;;
80565;SDS011;69915;54.862;10.730;2024-02-21T07:44:56;11.55;;;1.98;;
80565;SDS011;69915;54.862;10.730;2024-02-21T07:47:22;10.18;;;1.88;;
80565;SDS011;69915;54.862;10.730;2024-02-21T07:49:48;4.63;;;0.95;;
80565;SDS011;69915;54.862;10.730;2024-02-21T07:52:14;8.48;;;1.25;;
80565;SDS011;69915;54.862;10.730;2024-02-21T07:54:40;7.90;;;1.27;;
80565;SDS011;69915;54.862;10.730;2024-02-21T07:57:09;8.38;;;1.80;;
80565;SDS011;69915;54.862;10.730;2024-02-21T07:59:35;4.70;;;1.13;;
80565;SDS011;69915;54.862;10.730;2024-02-21T08:02:00;9.48;;;1.75;;
80565;SDS011;69915;54.862;10.730;2024-02-21T08:04:26;5.35;;;1.40;;
80565;SDS011;69915;54.862;10.730;2024-02-21T08:06:52;9.13;;;1.95;;
80565;SDS011;69915;54.862;10.730;2024-02-21T08:09:19;12.13;;;1.77;;
80565;SDS011;69915;54.862;10.730;2024-02-21T08:11:44;8.00;;;2.13;;
80565;SDS011;69915;54.862;10.730;2024-02-21T08:14:10;6.28;;;2.13;;
80565;SDS011;69915;54.862;10.730;2024-02-21T08:16:35;9.55;;;1.63;;
80565;SDS011;69915;54.862;10.730;2024-02-21T08:19:01;9.45;;;1.33;;
80565;SDS011;69915;54.862;10.730;2024-02-21T08:21:29;4.30;;;1.58;;
80565;SDS011;69915;54.862;10.730;2024-02-21T08:23:54;7.00;;;1.38;;
80565;SDS011;69915;54.862;10.730;2024-02-21T08:26:20;8.00;;;1.20;;
80565;SDS011;69915;54.862;10.730;2024-02-21T08:28:45;12.23;;;1.77;;
80565;SDS011;69915;54.862;10.730;2024-02-21T08:31:11;9.40;;;1.13;;
80565;SDS011;69915;54.862;10.730;2024-02-21T08:33:43;26.88;;;2.75;;
80565;SDS011;69915;54.862;10.730;2024-02-21T08:36:09;6.45;;;1.50;;
80565;SDS011;69915;54.862;10.730;2024-02-21T08:38:42;8.30;;;1.30;;
80565;SDS011;69915;54.862;10.730;2024-02-21T08:41:07;14.80;;;2.97;;
80565;SDS011;69915;54.862;10.730;2024-02-21T08:43:32;7.70;;;1.85;;
80565;SDS011;69915;54.862;10.730;2024-02-21T08:46:00;4.95;;;1.48;;
80565;SDS011;69915;54.862;10.730;2024-02-21T08:48:25;10.85;;;2.17;;
80565;SDS011;69915;54.862;10.730;2024-02-21T08:50:51;8.50;;;1.40;;
80565;SDS011;69915;54.862;10.730;2024-02-21T08:53:16;14.30;;;1.88;;
80565;SDS011;69915;54.862;10.730;2024-02-21T08:55:41;13.95;;;1.77;;
80565;SDS011;69915;54.862;10.730;2024-02-21T08:58:09;17.05;;;1.52;;
80565;SDS011;69915;54.862;10.730;2024-02-21T09:00:35;7.38;;;1.58;;
80565;SDS011;69915;54.862;10.730;2024-02-21T09:03:00;9.02;;;1.40;;
80565;SDS011;69915;54.862;10.730;2024-02-21T09:05:26;14.38;;;2.60;;
80565;SDS011;69915;54.862;10.730;2024-02-21T09:07:51;8.40;;;1.67;;
80565;SDS011;69915;54.862;10.730;2024-02-21T09:10:17;6.15;;;1.10;;
80565;SDS011;69915;54.862;10.730;2024-02-21T09:12:42;8.27;;;1.85;;
80565;SDS011;69915;54.862;10.730;2024-02-21T09:15:08;14.32;;;2.50;;
80565;SDS011;69915;54.862;10.730;2024-02-21T09:17:34;7.82;;;1.45;;
80565;SDS011;69915;54.862;10.730;2024-02-21T09:20:00;12.88;;;2.28;;
80565;SDS011;69915;54.862;10.730;2024-02-21T09:22:28;15.90;;;2.85;;
80565;SDS011;69915;54.862;10.730;2024-02-21T09:24:54;12.20;;;1.95;;
80565;SDS011;69915;54.862;10.730;2024-02-21T09:27:20;19.42;;;1.98;;
80565;SDS011;69915;54.862;10.730;2024-02-21T09:29:45;8.52;;;1.42;;
80565;SDS011;69915;54.862;10.730;2024-02-21T09:32:11;15.05;;;3.03;;
80565;SDS011;69915;54.862;10.730;2024-02-21T09:34:37;9.60;;;1.63;;
80565;SDS011;69915;54.862;10.730;2024-02-21T09:37:03;8.85;;;2.20;;
80565;SDS011;69915;54.862;10.730;2024-02-21T09:39:28;10.52;;;1.58;;
80565;SDS011;69915;54.862;10.730;2024-02-21T09:41:58;8.95;;;2.10;;
80565;SDS011;69915;54.862;10.730;2024-02-21T09:44:32;20.25;;;1.73;;
80565;SDS011;69915;54.862;10.730;2024-02-21T09:47:17;15.55;;;2.00;;
80565;SDS011;69915;54.862;10.730;2024-02-21T09:49:56;9.63;;;1.90;;
80565;SDS011;69915;54.862;10.730;2024-02-21T09:52:23;7.40;;;1.25;;
80565;SDS011;69915;54.862;10.730;2024-02-21T09:54:51;3.38;;;1.20;;
80565;SDS011;69915;54.862;10.730;2024-02-21T09:57:17;9.70;;;1.52;;
80565;SDS011;69915;54.862;10.730;2024-02-21T09:59:43;12.43;;;2.45;;
80565;SDS011;69915;54.862;10.730;2024-02-21T10:02:10;11.05;;;2.20;;
80565;SDS011;69915;54.862;10.730;2024-02-21T10:04:37;9.32;;;1.48;;
80565;SDS011;69915;54.862;10.730;2024-02-21T10:07:05;13.45;;;1.98;;
80565;SDS011;69915;54.862;10.730;2024-02-21T10:09:30;17.92;;;3.05;;
80565;SDS011;69915;54.862;10.730;2024-02-21T10:12:06;15.70;;;2.33;;
80565;SDS011;69915;54.862;10.730;2024-02-21T10:14:34;14.35;;;2.28;;
80565;SDS011;69915;54.862;10.730;2024-02-21T10:16:59;15.05;;;2.45;;
80565;SDS011;69915;54.862;10.730;2024-02-21T10:19:25;8.63;;;1.35;;
80565;SDS011;69915;54.862;10.730;2024-02-21T10:22:01;16.35;;;3.03;;
80565;SDS011;69915;54.862;10.730;2024-02-21T10:24:28;12.88;;;1.52;;
80565;SDS011;69915;54.862;10.730;2024-02-21T10:26:58;9.43;;;1.92;;
80565;SDS011;69915;54.862;10.730;2024-02-21T10:29:29;7.68;;;2.13;;
80565;SDS011;69915;54.862;10.730;2024-02-21T10:32:11;13.57;;;2.00;;
80565;SDS011;69915;54.862;10.730;2024-02-21T10:34:39;8.68;;;1.42;;
80565;SDS011;69915;54.862;10.730;2024-02-21T10:37:06;7.47;;;1.98;;
80565;SDS011;69915;54.862;10.730;2024-02-21T10:39:33;8.18;;;1.58;;
80565;SDS011;69915;54.862;10.730;2024-02-21T10:42:01;11.00;;;1.77;;
80565;SDS011;69915;54.862;10.730;2024-02-21T10:46:59;10.18;;;1.52;;
80565;SDS011;69915;54.862;10.730;2024-02-21T10:49:27;14.18;;;2.40;;
80565;SDS011;69915;54.862;10.730;2024-02-21T10:52:14;9.93;;;1.90;;
80565;SDS011;69915;54.862;10.730;2024-02-21T10:55:03;7.68;;;2.15;;
80565;SDS011;69915;54.862;10.730;2024-02-21T10:57:34;14.95;;;1.92;;
80565;SDS011;69915;54.862;10.730;2024-02-21T11:00:01;7.97;;;1.55;;
80565;SDS011;69915;54.862;10.730;2024-02-21T11:02:33;9.88;;;1.75;;
80565;SDS011;69915;54.862;10.730;2024-02-21T11:04:59;10.52;;;2.22;;
80565;SDS011;69915;54.862;10.730;2024-02-21T11:07:26;4.90;;;1.13;;
80565;SDS011;69915;54.862;10.730;2024-02-21T11:09:52;5.50;;;1.17;;
80565;SDS011;69915;54.862;10.730;2024-02-21T11:12:23;9.73;;;1.67;;
80565;SDS011;69915;54.862;10.730;2024-02-21T11:14:50;11.93;;;2.15;;
80565;SDS011;69915;54.862;10.730;2024-02-21T11:19:42;10.27;;;1.42;;
80565;SDS011;69915;54.862;10.730;2024-02-21T11:22:14;9.70;;;1.45;;
80565;SDS011;69915;54.862;10.730;2024-02-21T11:24:42;6.07;;;2.28;;
80565;SDS011;69915;54.862;10.730;2024-02-21T11:29:44;5.47;;;1.77;;
80565;SDS011;69915;54.862;10.730;2024-02-21T11:32:16;8.73;;;1.77;;
80565;SDS011;69915;54.862;10.730;2024-02-21T11:35:00;10.35;;;1.48;;
80565;SDS011;69915;54.862;10.730;2024-02-21T11:37:33;6.72;;;1.45;;
80565;SDS011;69915;54.862;10.730;2024-02-21T11:42:29;8.50;;;1.50;;
80565;SDS011;69915;54.862;10.730;2024-02-21T11:44:59;12.43;;;1.65;;
80565;SDS011;69915;54.862;10.730;2024-02-21T11:47:25;15.52;;;1.92;;
80565;SDS011;69915;54.862;10.730;2024-02-21T11:49:53;10.77;;;1.38;;
80565;SDS011;69915;54.862;10.730;2024-02-21T11:52:21;9.75;;;1.42;;
80565;SDS011;69915;54.862;10.730;2024-02-21T11:54:47;12.75;;;1.60;;
80565;SDS011;69915;54.862;10.730;2024-02-21T11:57:13;12.05;;;1.70;;
80565;SDS011;69915;54.862;10.730;2024-02-21T11:59:39;15.57;;;2.08;;
80565;SDS011;69915;54.862;10.730;2024-02-21T12:02:06;8.57;;;1.38;;
80565;SDS011;69915;54.862;10.730;2024-02-21T12:04:31;10.75;;;1.70;;
80565;SDS011;69915;54.862;10.730;2024-02-21T12:06:57;5.90;;;1.20;;
80565;SDS011;69915;54.862;10.730;2024-02-21T12:09:24;9.27;;;1.27;;
80565;SDS011;69915;54.862;10.730;2024-02-21T12:11:57;16.05;;;2.00;;
80565;SDS011;69915;54.862;10.730;2024-02-21T12:14:24;10.80;;;1.77;;
80565;SDS011;69915;54.862;10.730;2024-02-21T12:16:51;9.25;;;1.80;;
80565;SDS011;69915;54.862;10.730;2024-02-21T12:19:16;10.15;;;1.98;;
80565;SDS011;69915;54.862;10.730;2024-02-21T12:21:42;9.93;;;1.80;;
80565;SDS011;69915;54.862;10.730;2024-02-21T12:24:11;12.45;;;2.08;;
80565;SDS011;69915;54.862;10.730;2024-02-21T12:26:39;9.20;;;1.13;;
80565;SDS011;69915;54.862;10.730;2024-02-21T12:29:05;5.72;;;1.33;;
80565;SDS011;69915;54.862;10.730;2024-02-21T12:31:30;5.10;;;1.20;;
80565;SDS011;69915;54.862;10.730;2024-02-21T12:33:56;4.97;;;1.40;;
80565;SDS011;69915;54.862;10.730;2024-02-21T12:36:22;4.28;;;1.25;;
80565;SDS011;69915;54.862;10.730;2024-02-21T12:38:47;10.68;;;1.80;;
80565;SDS011;69915;54.862;10.730;2024-02-21T12:41:14;9.45;;;1.85;;
80565;SDS011;69915;54.862;10.730;2024-02-21T12:43:40;10.95;;;1.77;;
80565;SDS011;69915;54.862;10.730;2024-02-21T12:46:05;7.82;;;1.20;;
80565;SDS011;69915;54.862;10.730;2024-02-21T12:48:32;11.65;;;1.85;;
80565;SDS011;69915;54.862;10.730;2024-02-21T12:50:58;9.85;;;1.75;;
80565;SDS011;69915;54.862;10.730;2024-02-21T12:53:24;10.70;;;1.60;;
80565;SDS011;69915;54.862;10.730;2024-02-21T12:55:50;6.60;;;1.77;;
80565;SDS011;69915;54.862;10.730;2024-02-21T12:58:16;5.80;;;1.42;;
80565;SDS011;69915;54.862;10.730;2024-02-21T13:00:42;9.25;;;1.63;;
80565;SDS011;69915;54.862;10.730;2024-02-21T13:03:07;6.75;;;1.73;;
80565;SDS011;69915;54.862;10.730;2024-02-21T13:05:35;5.38;;;1.17;;
80565;SDS011;69915;54.862;10.730;2024-02-21T13:08:01;5.40;;;1.00;;
80565;SDS011;69915;54.862;10.730;2024-02-21T13:10:27;9.38;;;1.10;;
80565;SDS011;69915;54.862;10.730;2024-02-21T13:12:53;4.43;;;0.75;;
80565;SDS011;69915;54.862;10.730;2024-02-21T13:15:19;3.40;;;0.88;;
80565;SDS011;69915;54.862;10.730;2024-02-21T13:17:45;5.55;;;1.23;;
80565;SDS011;69915;54.862;10.730;2024-02-21T13:20:10;3.55;;;1.08;;
80565;SDS011;69915;54.862;10.730;2024-02-21T13:22:36;6.18;;;1.02;;
80565;SDS011;69915;54.862;10.730;2024-02-21T13:25:03;8.50;;;1.85;;
80565;SDS011;69915;54.862;10.730;2024-02-21T13:27:29;8.48;;;1.23;;
80565;SDS011;69915;54.862;10.730;2024-02-21T13:29:55;8.70;;;1.80;;
80565;SDS011;69915;54.862;10.730;2024-02-21T13:32:20;6.68;;;1.40;;
80565;SDS011;69915;54.862;10.730;2024-02-21T13:34:46;7.95;;;1.58;;
80565;SDS011;69915;54.862;10.730;2024-02-21T13:37:11;9.95;;;2.15;;
80565;SDS011;69915;54.862;10.730;2024-02-21T13:39:38;10.45;;;2.35;;
80565;SDS011;69915;54.862;10.730;2024-02-21T13:42:05;4.43;;;1.02;;
80565;SDS011;69915;54.862;10.730;2024-02-21T13:44:34;6.93;;;1.40;;
80565;SDS011;69915;54.862;10.730;2024-02-21T13:46:59;3.25;;;1.00;;
80565;SDS011;69915;54.862;10.730;2024-02-21T13:49:25;4.95;;;2.17;;
80565;SDS011;69915;54.862;10.730;2024-02-21T13:51:51;13.10;;;2.88;;
80565;SDS011;69915;54.862;10.730;2024-02-21T13:54:16;5.43;;;1.52;;
80565;SDS011;69915;54.862;10.730;2024-02-21T13:56:44;7.28;;;1.63;;
80565;SDS011;69915;54.862;10.730;2024-02-21T13:59:11;13.38;;;3.58;;
80565;SDS011;69915;54.862;10.730;2024-02-21T14:01:38;4.80;;;2.38;;
80565;SDS011;69915;54.862;10.730;2024-02-21T14:04:04;7.47;;;1.60;;
80565;SDS011;69915;54.862;10.730;2024-02-21T14:06:30;9.07;;;2.47;;
80565;SDS011;69915;54.862;10.730;2024-02-21T14:08:55;7.45;;;2.58;;
80565;SDS011;69915;54.862;10.730;2024-02-21T14:11:21;8.35;;;1.42;;
80565;SDS011;69915;54.862;10.730;2024-02-21T14:13:46;7.93;;;2.45;;
80565;SDS011;69915;54.862;10.730;2024-02-21T14:16:12;9.63;;;2.47;;
80565;SDS011;69915;54.862;10.730;2024-02-21T14:18:40;6.50;;;1.50;;
80565;SDS011;69915;54.862;10.730;2024-02-21T14:21:07;7.82;;;2.45;;
80565;SDS011;69915;54.862;10.730;2024-02-21T14:23:35;4.40;;;1.70;;
80565;SDS011;69915;54.862;10.730;2024-02-21T14:26:02;5.65;;;1.70;;
80565;SDS011;69915;54.862;10.730;2024-02-21T14:28:28;11.13;;;2.63;;
80565;SDS011;69915;54.862;10.730;2024-02-21T14:30:54;6.32;;;1.80;;
80565;SDS011;69915;54.862;10.730;2024-02-21T14:33:22;7.30;;;2.60;;
80565;SDS011;69915;54.862;10.730;2024-02-21T14:35:49;5.45;;;1.67;;